Time;durP1;ratioP1;P1;durP2;ratioP2;P2;SDS_P1;SDS_P2;PMS_P1;PMS_P2;Temp;Humidity;BMP_temperature;BMP_pressure;BME280_temperature;BME280_humidity;BME280_pressure;Samples;Min_cycle;Max_cycle;Signal;HPM_P1;HPM_P2
2021/07/12 00:01:24;;;;;;;8.97;8.33;;;23.80;97.10;;;;;;3527299;40;20467;-60
2021/07/12 00:03:52;;;;;;;8.60;8.20;;;23.80;97.10;;;;;;3527472;40;20471;-58
2021/07/12 00:06:19;;;;;;;8.93;8.43;;;23.90;97.20;;;;;;3526851;40;20729;-59
2021/07/12 00:08:47;;;;;;;8.80;8.30;;;23.80;97.10;;;;;;3526713;40;20467;-58
2021/07/12 00:11:14;;;;;;;9.17;8.53;;;23.80;97.10;;;;;;3526412;40;20460;-57
2021/07/12 00:13:41;;;;;;;9.33;8.80;;;23.80;97.10;;;;;;3526831;40;20474;-58
2021/07/12 00:16:08;;;;;;;8.70;8.30;;;23.80;97.10;;;;;;3526850;40;20494;-59
2021/07/12 00:18:36;;;;;;;9.50;9.00;;;23.80;97.10;;;;;;3526015;40;21292;-58
2021/07/12 00:21:05;;;;;;;9.17;8.77;;;23.80;97.10;;;;;;3526280;40;20459;-60
2021/07/12 00:23:32;;;;;;;9.00;8.50;;;23.80;97.10;;;;;;3526600;40;20456;-59
2021/07/12 00:25:59;;;;;;;9.33;8.83;;;23.80;97.00;;;;;;3527034;40;20475;-60
2021/07/12 00:28:26;;;;;;;9.40;8.90;;;23.80;97.00;;;;;;3527254;40;21331;-59
2021/07/12 00:30:54;;;;;;;8.60;8.30;;;23.90;97.10;;;;;;3527560;40;20934;-59
2021/07/12 00:33:21;;;;;;;9.03;8.53;;;23.80;97.00;;;;;;3526444;40;20497;-58
2021/07/12 00:35:49;;;;;;;9.07;8.67;;;23.80;97.00;;;;;;3526804;40;21125;-60
2021/07/12 00:38:27;;;;;;;8.57;8.17;;;23.90;97.10;;;;;;3527125;40;20478;-59
2021/07/12 00:40:54;;;;;;;9.47;8.93;;;23.80;97.00;;;;;;3527134;40;20448;-58
2021/07/12 00:43:25;;;;;;;8.63;8.23;;;23.80;97.00;;;;;;3534242;40;20519;-59
2021/07/12 00:45:53;;;;;;;9.50;9.00;;;23.80;97.00;;;;;;3526903;40;20560;-58
2021/07/12 00:48:20;;;;;;;9.70;9.27;;;23.80;97.00;;;;;;3526613;40;20546;-60
2021/07/12 00:50:52;;;;;;;9.03;8.63;;;23.80;97.00;;;;;;3533288;40;20475;-60
2021/07/12 00:53:19;;;;;;;10.30;9.47;;;23.80;97.00;;;;;;3526092;40;21268;-59
2021/07/12 00:55:52;;;;;;;8.37;8.00;;;23.80;97.00;;;;;;3517900;40;20505;-59
2021/07/12 00:58:21;;;;;;;9.27;8.83;;;23.80;97.00;;;;;;3533711;40;21021;-59
2021/07/12 01:00:52;;;;;;;9.07;8.47;;;23.80;97.00;;;;;;3525515;40;20447;-59
2021/07/12 01:03:20;;;;;;;8.93;8.53;;;23.80;97.00;;;;;;3525087;40;20468;-59
2021/07/12 01:05:50;;;;;;;9.53;9.03;;;23.80;97.00;;;;;;3526167;40;20452;-59
2021/07/12 01:08:18;;;;;;;9.07;8.67;;;23.80;97.00;;;;;;3525964;40;20479;-58
2021/07/12 01:11:03;;;;;;;10.13;9.37;;;23.80;97.00;;;;;;3533699;40;20455;-59
2021/07/12 01:13:40;;;;;;;9.53;9.03;;;23.80;97.00;;;;;;3526837;40;20478;-60
2021/07/12 01:16:19;;;;;;;8.97;8.43;;;23.80;97.00;;;;;;3525348;40;20522;-58
2021/07/12 01:18:55;;;;;;;9.40;8.90;;;23.80;97.00;;;;;;3517323;40;20463;-59
2021/07/12 01:21:53;;;;;;;8.90;8.50;;;23.80;97.00;;;;;;3526187;40;20551;-59
2021/07/12 01:24:50;;;;;;;9.30;8.90;;;23.80;97.00;;;;;;3517179;40;21018;-59
2021/07/12 01:27:54;;;;;;;8.80;8.40;;;23.80;97.00;;;;;;3525884;40;20578;-59
2021/07/12 01:30:30;;;;;;;8.60;8.30;;;23.80;97.00;;;;;;3517163;40;20451;-59
2021/07/12 01:33:05;;;;;;;9.10;8.60;;;23.80;97.00;;;;;;3526394;40;20459;-59
2021/07/12 01:35:45;;;;;;;10.10;9.50;;;23.80;97.00;;;;;;3517725;40;20672;-59
2021/07/12 01:38:29;;;;;;;9.00;8.60;;;23.80;97.00;;;;;;3519019;40;20491;-59
2021/07/12 01:41:11;;;;;;;9.50;9.10;;;23.80;97.00;;;;;;3528209;40;20459;-59
2021/07/12 01:44:01;;;;;;;9.20;8.80;;;23.80;97.00;;;;;;3528688;40;20925;-59
2021/07/12 01:46:36;;;;;;;8.50;8.00;;;23.80;97.00;;;;;;3535010;40;20479;-59
2021/07/12 01:49:12;;;;;;;9.10;8.70;;;23.80;97.00;;;;;;3527247;40;20467;-59
2021/07/12 01:52:01;;;;;;;8.57;8.20;;;23.80;97.00;;;;;;3519657;40;20451;-59
2021/07/12 01:54:32;;;;;;;9.00;8.50;;;23.80;97.00;;;;;;3518985;40;20456;-59
2021/07/12 01:57:07;;;;;;;10.03;9.43;;;23.80;97.00;;;;;;3527851;40;20461;-58
2021/07/12 01:59:41;;;;;;;8.93;8.50;;;23.80;97.00;;;;;;3510344;40;20460;-59
2021/07/12 02:02:14;;;;;;;9.67;9.20;;;23.80;97.00;;;;;;3518422;40;20514;-58
2021/07/12 02:04:54;;;;;;;9.13;8.73;;;23.80;96.90;;;;;;3527435;40;21130;-59
2021/07/12 02:07:23;;;;;;;9.10;8.70;;;23.80;96.90;;;;;;3518860;40;20547;-58
2021/07/12 02:09:53;;;;;;;9.23;8.83;;;23.80;96.90;;;;;;3518181;40;20458;-59
2021/07/12 02:12:23;;;;;;;9.20;8.80;;;23.80;96.90;;;;;;3517902;40;20821;-59
2021/07/12 02:14:51;;;;;;;9.57;9.07;;;23.80;97.00;;;;;;3534934;40;21124;-59
2021/07/12 02:17:22;;;;;;;9.10;8.60;;;23.80;96.90;;;;;;3518384;40;20866;-59
2021/07/12 02:20:02;;;;;;;9.20;8.80;;;23.80;96.90;;;;;;3511160;40;20487;-59
2021/07/12 02:22:34;;;;;;;8.93;8.53;;;23.80;96.90;;;;;;3519222;40;20464;-60
2021/07/12 02:25:10;;;;;;;9.00;8.60;;;23.80;96.90;;;;;;3527651;40;21024;-60
2021/07/12 02:27:37;;;;;;;9.00;8.60;;;23.80;96.90;;;;;;3527600;40;20578;-60
2021/07/12 02:30:07;;;;;;;9.60;9.20;;;23.80;96.90;;;;;;3528116;40;20812;-59
2021/07/12 02:32:36;;;;;;;10.30;9.70;;;23.80;96.90;;;;;;3518682;40;20448;-59
2021/07/12 02:35:08;;;;;;;9.63;9.23;;;23.80;96.90;;;;;;3510784;40;20485;-59
2021/07/12 02:37:38;;;;;;;10.30;9.80;;;23.80;96.90;;;;;;3534692;40;20491;-60
2021/07/12 02:40:07;;;;;;;9.77;9.37;;;23.80;96.90;;;;;;3527146;40;20463;-58
2021/07/12 02:42:38;;;;;;;9.33;8.83;;;23.80;96.90;;;;;;3535328;40;20483;-59
2021/07/12 02:45:07;;;;;;;9.13;8.73;;;23.80;96.90;;;;;;3527855;40;21000;-59
2021/07/12 02:47:35;;;;;;;9.63;9.13;;;23.80;96.90;;;;;;3517585;40;21054;-60
2021/07/12 02:50:08;;;;;;;9.87;9.23;;;23.80;96.90;;;;;;3518555;40;20463;-60
2021/07/12 02:52:41;;;;;;;9.10;8.70;;;23.80;96.90;;;;;;3527676;40;20439;-57
2021/07/12 02:55:10;;;;;;;9.50;9.10;;;23.80;96.90;;;;;;3527796;40;20511;-58
2021/07/12 02:57:39;;;;;;;9.03;8.40;;;23.80;96.90;;;;;;3510777;40;20490;-60
2021/07/12 03:00:09;;;;;;;9.63;9.00;;;23.80;96.90;;;;;;3527521;40;20452;-58
2021/07/12 03:02:38;;;;;;;9.60;9.10;;;23.80;96.80;;;;;;3528042;40;20455;-58
2021/07/12 03:05:11;;;;;;;9.63;9.13;;;23.80;96.80;;;;;;3518217;40;20459;-58
2021/07/12 03:07:44;;;;;;;10.10;9.60;;;23.80;96.90;;;;;;3527303;40;20475;-60
2021/07/12 03:10:16;;;;;;;10.37;9.97;;;23.80;96.80;;;;;;3517952;40;20519;-60
2021/07/12 03:12:47;;;;;;;10.83;10.33;;;23.80;96.80;;;;;;3527617;40;20487;-58
2021/07/12 03:15:17;;;;;;;10.47;10.00;;;23.80;96.80;;;;;;3527467;40;20468;-58
2021/07/12 03:17:48;;;;;;;9.93;9.53;;;23.80;96.80;;;;;;3526148;40;20490;-59
2021/07/12 03:20:18;;;;;;;10.30;9.90;;;23.80;96.80;;;;;;3527115;40;20467;-60
2021/07/12 03:22:51;;;;;;;10.77;10.30;;;23.80;96.80;;;;;;3507769;40;20462;-59
2021/07/12 03:25:23;;;;;;;10.03;9.53;;;23.80;96.80;;;;;;3508212;40;20456;-58
2021/07/12 03:27:54;;;;;;;10.23;9.73;;;23.80;96.80;;;;;;3517746;40;20480;-59
2021/07/12 03:30:23;;;;;;;10.33;9.93;;;23.80;96.80;;;;;;3525096;40;20481;-60
2021/07/12 03:32:52;;;;;;;10.80;10.20;;;23.80;96.80;;;;;;3515553;40;21159;-59
2021/07/12 03:35:26;;;;;;;10.47;10.07;;;23.80;96.80;;;;;;3508008;40;20484;-60
2021/07/12 03:37:57;;;;;;;9.90;9.50;;;23.80;96.80;;;;;;3508035;40;20539;-59
2021/07/12 03:40:24;;;;;;;10.27;9.87;;;23.80;96.80;;;;;;3516655;40;20453;-59
2021/07/12 03:42:53;;;;;;;10.00;9.60;;;23.80;96.80;;;;;;3507031;40;20472;-59
2021/07/12 03:45:21;;;;;;;11.33;10.73;;;23.80;96.80;;;;;;3507285;40;20528;-58
2021/07/12 03:47:51;;;;;;;11.03;10.57;;;23.80;96.80;;;;;;3516574;40;20472;-60
2021/07/12 03:50:19;;;;;;;11.23;10.63;;;23.80;96.80;;;;;;3498362;40;20591;-58
2021/07/12 03:52:49;;;;;;;11.30;10.80;;;23.80;96.80;;;;;;3506604;40;20461;-59
2021/07/12 03:55:19;;;;;;;11.00;10.60;;;23.80;96.70;;;;;;3515543;40;20552;-57
2021/07/12 03:57:47;;;;;;;10.80;10.40;;;23.70;96.70;;;;;;3507961;40;20774;-59
2021/07/12 04:00:17;;;;;;;10.77;10.27;;;23.80;96.70;;;;;;3514820;40;20469;-58
2021/07/12 04:02:45;;;;;;;10.87;10.37;;;23.80;96.70;;;;;;3515798;40;20521;-59
2021/07/12 04:05:13;;;;;;;10.60;10.10;;;23.70;96.70;;;;;;3514944;40;20453;-59
2021/07/12 04:07:41;;;;;;;9.17;8.80;;;23.80;96.70;;;;;;3514951;40;20468;-60
2021/07/12 04:10:12;;;;;;;9.90;9.50;;;23.80;96.70;;;;;;3515864;40;20930;-58
2021/07/12 04:12:41;;;;;;;10.33;9.83;;;23.80;96.70;;;;;;3522502;40;20480;-59
2021/07/12 04:15:10;;;;;;;10.53;10.03;;;23.80;96.70;;;;;;3514708;40;20467;-59
2021/07/12 04:17:37;;;;;;;10.37;9.87;;;23.80;96.70;;;;;;3515853;40;20487;-59
2021/07/12 04:20:06;;;;;;;11.13;10.43;;;23.80;96.70;;;;;;3514434;40;20484;-58
2021/07/12 04:22:33;;;;;;;10.53;10.13;;;23.80;96.70;;;;;;3515109;40;20471;-59
2021/07/12 04:25:01;;;;;;;11.47;10.97;;;23.80;96.70;;;;;;3524542;40;20455;-58
2021/07/12 04:27:29;;;;;;;11.60;10.90;;;23.80;96.60;;;;;;3523857;40;20558;-58
2021/07/12 04:29:56;;;;;;;11.63;11.13;;;23.80;96.70;;;;;;3523003;40;20812;-59
2021/07/12 04:32:23;;;;;;;10.70;10.30;;;23.80;96.60;;;;;;3523909;40;21084;-59
2021/07/12 04:34:51;;;;;;;10.93;10.43;;;23.80;96.60;;;;;;3523515;40;20502;-59
2021/07/12 04:37:18;;;;;;;10.80;10.40;;;23.80;96.60;;;;;;3523513;40;20689;-59
2021/07/12 04:39:45;;;;;;;11.23;10.73;;;23.80;96.60;;;;;;3521632;40;20472;-58
2021/07/12 04:42:12;;;;;;;11.60;11.10;;;23.80;96.60;;;;;;3522947;40;20515;-59
2021/07/12 04:44:41;;;;;;;11.33;10.63;;;23.80;96.60;;;;;;3520446;40;20459;-58
2021/07/12 04:47:08;;;;;;;11.67;11.10;;;23.80;96.60;;;;;;3519647;40;20455;-60
2021/07/12 04:49:36;;;;;;;10.30;9.90;;;23.80;96.50;;;;;;3521733;40;20554;-59
2021/07/12 04:52:04;;;;;;;10.40;9.90;;;23.80;96.50;;;;;;3522750;40;20740;-58
2021/07/12 04:54:31;;;;;;;11.23;10.73;;;23.80;96.50;;;;;;3521919;40;20953;-59
2021/07/12 04:56:58;;;;;;;10.97;10.43;;;23.80;96.50;;;;;;3522235;40;20550;-58
2021/07/12 04:59:27;;;;;;;10.60;10.20;;;23.80;96.50;;;;;;3522938;40;20506;-59
2021/07/12 05:01:56;;;;;;;10.73;10.27;;;23.80;96.50;;;;;;3521439;40;20472;-59
2021/07/12 05:04:23;;;;;;;10.80;10.30;;;23.80;96.50;;;;;;3521199;40;20471;-59
2021/07/12 05:06:51;;;;;;;11.23;10.70;;;23.80;96.50;;;;;;3519963;40;20467;-60
2021/07/12 05:09:18;;;;;;;10.63;10.13;;;23.90;96.50;;;;;;3518864;40;20675;-59
2021/07/12 05:11:47;;;;;;;10.80;10.30;;;23.90;96.40;;;;;;3518352;40;20482;-59
2021/07/12 05:14:14;;;;;;;11.50;10.90;;;23.80;96.00;;;;;;3519079;40;20897;-58
2021/07/12 05:16:41;;;;;;;12.37;11.47;;;23.80;95.20;;;;;;3517758;40;20471;-60
2021/07/12 05:19:13;;;;;;;11.23;10.63;;;23.80;94.70;;;;;;3516679;40;20478;-56
2021/07/12 05:21:41;;;;;;;12.10;11.50;;;23.70;94.30;;;;;;3518543;40;20472;-57
2021/07/12 05:24:09;;;;;;;11.27;10.77;;;23.70;94.50;;;;;;3517522;40;20487;-58
2021/07/12 05:26:36;;;;;;;11.30;10.77;;;23.60;94.30;;;;;;3518296;40;20451;-59
2021/07/12 05:29:03;;;;;;;10.70;10.20;;;23.60;94.30;;;;;;3516060;40;20488;-59
2021/07/12 05:31:31;;;;;;;11.67;10.77;;;23.60;94.40;;;;;;3516280;40;21385;-59
2021/07/12 05:33:58;;;;;;;11.60;10.97;;;23.50;94.40;;;;;;3517520;40;20850;-59
2021/07/12 05:36:27;;;;;;;11.27;10.57;;;23.50;94.40;;;;;;3518415;40;20472;-59
2021/07/12 05:38:54;;;;;;;12.23;11.50;;;23.50;94.50;;;;;;3517315;40;20474;-58
2021/07/12 05:41:22;;;;;;;11.50;11.00;;;23.50;94.60;;;;;;3517293;40;20516;-59
2021/07/12 05:43:49;;;;;;;11.33;10.77;;;23.50;94.70;;;;;;3517790;40;20478;-59
2021/07/12 05:46:16;;;;;;;10.60;10.20;;;23.50;94.70;;;;;;3516635;40;20456;-59
2021/07/12 05:48:43;;;;;;;11.60;11.10;;;23.50;94.70;;;;;;3515529;40;20551;-60
2021/07/12 05:51:11;;;;;;;11.63;11.03;;;23.50;94.70;;;;;;3516347;40;20466;-59
2021/07/12 05:53:42;;;;;;;10.93;10.50;;;23.60;94.80;;;;;;3514604;40;20451;-59
2021/07/12 05:56:09;;;;;;;11.13;10.53;;;23.50;94.70;;;;;;3514779;40;20515;-58
2021/07/12 05:58:38;;;;;;;11.73;11.07;;;23.50;94.70;;;;;;3514319;40;20586;-58
2021/07/12 06:01:07;;;;;;;11.77;11.10;;;23.50;94.80;;;;;;3513703;40;20535;-59
2021/07/12 06:03:35;;;;;;;11.13;10.43;;;23.50;94.80;;;;;;3511897;40;20492;-58
2021/07/12 06:06:04;;;;;;;11.03;10.47;;;23.50;94.90;;;;;;3510216;40;20463;-58
2021/07/12 06:08:31;;;;;;;11.83;11.10;;;23.60;95.00;;;;;;3509395;40;20448;-58
2021/07/12 06:11:00;;;;;;;11.20;10.63;;;23.60;95.10;;;;;;3511962;40;20460;-58
2021/07/12 06:13:27;;;;;;;12.03;11.23;;;23.60;95.10;;;;;;3509466;40;20479;-58
2021/07/12 06:15:54;;;;;;;11.00;10.40;;;23.60;95.10;;;;;;3499184;40;20516;-59
2021/07/12 06:18:21;;;;;;;10.60;10.10;;;23.60;95.10;;;;;;3510848;40;20463;-58
2021/07/12 06:20:49;;;;;;;11.13;10.43;;;23.60;95.20;;;;;;3509753;40;20542;-59
2021/07/12 06:23:16;;;;;;;10.83;10.17;;;23.60;95.20;;;;;;3510395;40;21555;-59
2021/07/12 06:25:44;;;;;;;11.90;11.03;;;23.60;95.30;;;;;;3506640;40;20463;-58
2021/07/12 06:28:12;;;;;;;10.40;9.90;;;23.60;95.30;;;;;;3508857;40;20825;-58
2021/07/12 06:30:40;;;;;;;10.07;9.57;;;23.60;95.40;;;;;;3509418;40;20478;-58
2021/07/12 06:33:07;;;;;;;11.57;11.07;;;23.60;95.50;;;;;;3508853;40;20574;-59
2021/07/12 06:35:36;;;;;;;10.90;10.30;;;23.70;95.50;;;;;;3510587;40;20451;-59
2021/07/12 06:38:03;;;;;;;11.83;10.83;;;23.70;95.60;;;;;;3505898;40;20593;-59
2021/07/12 06:40:31;;;;;;;11.77;11.03;;;23.70;95.60;;;;;;3509834;40;20448;-59
2021/07/12 06:42:59;;;;;;;10.83;10.23;;;23.70;95.70;;;;;;3510292;40;20474;-59
2021/07/12 06:45:27;;;;;;;11.37;10.77;;;23.70;95.90;;;;;;3510782;40;20469;-58
2021/07/12 06:47:55;;;;;;;13.17;11.00;;;23.70;95.90;;;;;;3509288;40;20883;-59
2021/07/12 06:50:23;;;;;;;11.43;10.77;;;23.70;95.90;;;;;;3502219;40;20483;-59
2021/07/12 06:52:50;;;;;;;10.87;10.00;;;23.70;96.00;;;;;;3511874;40;20463;-57
2021/07/12 06:55:18;;;;;;;10.87;9.80;;;23.80;96.10;;;;;;3509717;40;20452;-59
2021/07/12 06:57:45;;;;;;;10.33;9.53;;;23.80;96.10;;;;;;3509797;40;21269;-58
2021/07/12 07:00:14;;;;;;;10.03;9.43;;;23.80;96.10;;;;;;3503859;40;20683;-59
2021/07/12 07:03:00;;;;;;;10.77;10.07;;;23.80;96.50;;;;;;3506522;40;20562;-58
2021/07/12 07:05:28;;;;;;;10.47;9.90;;;23.80;96.10;;;;;;3507946;40;20482;-58
2021/07/12 07:08:00;;;;;;;9.17;8.67;;;23.80;96.40;;;;;;3499676;40;20459;-58
2021/07/12 07:10:27;;;;;;;10.13;9.30;;;23.80;97.20;;;;;;3509389;40;20563;-59
2021/07/12 07:12:55;;;;;;;9.13;8.73;;;23.70;97.30;;;;;;3509332;40;20472;-60
2021/07/12 07:15:22;;;;;;;9.77;9.27;;;23.70;97.30;;;;;;3508815;40;21100;-59
2021/07/12 07:17:49;;;;;;;9.80;9.20;;;23.70;97.20;;;;;;3507122;40;20471;-58
2021/07/12 07:20:18;;;;;;;8.80;8.30;;;23.80;96.90;;;;;;3506193;40;20460;-62
2021/07/12 07:22:45;;;;;;;9.27;8.87;;;23.80;96.80;;;;;;3503567;40;20483;-61
2021/07/12 07:25:13;;;;;;;9.30;8.80;;;23.80;96.60;;;;;;3499854;40;20578;-62
2021/07/12 07:27:43;;;;;;;9.00;8.67;;;23.80;96.50;;;;;;3506283;40;20483;-61
2021/07/12 07:30:12;;;;;;;9.20;8.90;;;23.90;96.50;;;;;;3505315;40;20459;-60
2021/07/12 07:32:40;;;;;;;10.20;9.30;;;23.80;96.40;;;;;;3504540;40;20570;-60
2021/07/12 07:35:09;;;;;;;8.83;8.53;;;23.80;96.40;;;;;;3508125;40;20522;-61
2021/07/12 07:37:37;;;;;;;8.90;8.60;;;23.70;96.40;;;;;;3505764;40;20740;-61
2021/07/12 07:40:07;;;;;;;8.90;8.60;;;23.80;96.50;;;;;;3505855;40;20802;-61
2021/07/12 07:42:35;;;;;;;9.17;8.87;;;23.80;96.50;;;;;;3504914;40;20475;-62
2021/07/12 07:45:02;;;;;;;8.87;8.57;;;23.80;96.40;;;;;;3508929;40;20456;-62
2021/07/12 07:47:29;;;;;;;8.70;8.40;;;23.80;96.30;;;;;;3506587;40;20741;-61
2021/07/12 07:49:57;;;;;;;8.50;8.20;;;23.80;96.20;;;;;;3507036;40;20452;-60
2021/07/12 07:52:24;;;;;;;9.60;8.90;;;23.80;96.10;;;;;;3504935;40;20472;-58
2021/07/12 07:54:52;;;;;;;9.87;9.27;;;23.80;96.00;;;;;;3504498;40;20498;-58
2021/07/12 07:57:19;;;;;;;9.40;9.10;;;23.80;96.10;;;;;;3504699;40;20495;-56
2021/07/12 07:59:54;;;;;;;9.20;8.90;;;23.90;96.10;;;;;;3507172;40;20782;-58
2021/07/12 08:02:25;;;;;;;9.93;9.53;;;23.90;96.10;;;;;;3498129;40;20476;-58
2021/07/12 08:04:55;;;;;;;9.77;9.37;;;23.90;96.00;;;;;;3508057;40;21161;-58
2021/07/12 08:07:26;;;;;;;9.80;9.50;;;24.00;96.10;;;;;;3507015;40;20487;-58
2021/07/12 08:09:55;;;;;;;10.27;9.70;;;24.00;96.10;;;;;;3508866;40;20490;-61
2021/07/12 08:12:22;;;;;;;9.23;8.80;;;24.00;96.70;;;;;;3506585;40;20542;-62
2021/07/12 08:14:49;;;;;;;8.70;8.40;;;24.00;96.70;;;;;;3506437;40;20456;-60
2021/07/12 08:17:18;;;;;;;9.20;8.90;;;24.00;96.70;;;;;;3512491;40;20883;-62
2021/07/12 08:19:45;;;;;;;10.07;9.67;;;24.00;96.80;;;;;;3510163;40;20468;-61
2021/07/12 08:22:14;;;;;;;9.83;9.43;;;24.00;96.80;;;;;;3506850;40;20883;-61
2021/07/12 08:24:41;;;;;;;9.40;9.10;;;24.00;96.80;;;;;;3519248;40;20474;-61
2021/07/12 08:27:11;;;;;;;9.97;9.33;;;24.00;96.80;;;;;;3518298;40;20799;-62
2021/07/12 08:29:38;;;;;;;10.00;9.50;;;24.00;96.80;;;;;;3519159;40;20694;-61
2021/07/12 08:32:07;;;;;;;9.53;9.10;;;24.00;96.70;;;;;;3520440;40;20447;-62
2021/07/12 08:34:41;;;;;;;9.97;9.40;;;24.00;96.70;;;;;;3516764;40;20485;-61
2021/07/12 08:37:12;;;;;;;9.70;9.40;;;24.00;96.60;;;;;;3515148;40;20467;-61
2021/07/12 08:39:40;;;;;;;10.20;9.63;;;24.00;96.60;;;;;;3516415;40;20463;-61
2021/07/12 08:42:10;;;;;;;10.47;9.97;;;24.00;96.50;;;;;;3513026;40;20459;-61
2021/07/12 08:44:45;;;;;;;10.37;9.97;;;24.00;96.50;;;;;;3515140;40;21187;-61
2021/07/12 08:47:13;;;;;;;10.67;9.90;;;24.00;96.40;;;;;;3513680;40;20539;-61
2021/07/12 08:49:41;;;;;;;9.93;9.43;;;24.00;96.40;;;;;;3504393;40;20852;-61
2021/07/12 08:52:10;;;;;;;9.80;9.20;;;24.00;96.30;;;;;;3505121;40;20485;-61
2021/07/12 08:54:39;;;;;;;10.70;9.90;;;24.00;96.30;;;;;;3502604;40;20455;-61
2021/07/12 08:57:08;;;;;;;10.53;10.07;;;24.00;96.20;;;;;;3499036;40;20473;-60
2021/07/12 08:59:39;;;;;;;9.67;9.07;;;24.00;96.10;;;;;;3495736;40;20655;-61
2021/07/12 09:02:10;;;;;;;10.70;9.80;;;24.00;96.10;;;;;;3489095;40;20668;-61
2021/07/12 09:04:39;;;;;;;10.30;9.70;;;24.00;96.00;;;;;;3502728;40;20479;-61
2021/07/12 09:07:08;;;;;;;9.40;9.00;;;24.00;95.90;;;;;;3505763;40;20475;-61
2021/07/12 09:09:36;;;;;;;10.63;9.50;;;24.00;95.90;;;;;;3504865;40;20487;-60
2021/07/12 09:12:11;;;;;;;9.70;9.20;;;24.00;95.90;;;;;;3502314;40;20451;-61
2021/07/12 09:14:40;;;;;;;9.80;9.30;;;24.00;95.90;;;;;;3504925;40;20659;-61
2021/07/12 09:17:10;;;;;;;9.20;8.90;;;24.00;95.80;;;;;;3491530;40;20824;-61
2021/07/12 09:19:39;;;;;;;9.67;9.27;;;24.00;95.90;;;;;;3497186;40;20902;-61
2021/07/12 09:22:07;;;;;;;9.70;9.30;;;24.00;95.80;;;;;;3506608;40;20468;-60
2021/07/12 09:24:41;;;;;;;9.70;9.10;;;24.00;95.90;;;;;;3505921;40;20462;-61
2021/07/12 09:27:14;;;;;;;8.80;8.50;;;24.00;95.90;;;;;;3503068;40;20704;-61
2021/07/12 09:29:43;;;;;;;8.83;8.43;;;24.00;95.80;;;;;;3503966;40;20776;-61
2021/07/12 09:32:14;;;;;;;9.80;9.30;;;24.00;95.80;;;;;;3503258;40;20781;-61
2021/07/12 09:34:42;;;;;;;8.97;8.67;;;24.00;95.70;;;;;;3503433;40;20456;-60
2021/07/12 09:37:13;;;;;;;9.30;8.90;;;24.10;95.60;;;;;;3505528;40;20828;-61
2021/07/12 09:39:42;;;;;;;9.60;9.20;;;24.00;95.60;;;;;;3503693;40;20468;-60
2021/07/12 09:42:11;;;;;;;9.73;9.03;;;24.10;95.70;;;;;;3507198;40;20483;-60
2021/07/12 09:44:41;;;;;;;9.30;9.00;;;24.10;95.60;;;;;;3503435;40;20491;-59
2021/07/12 09:47:13;;;;;;;9.83;9.43;;;24.00;95.60;;;;;;3504865;40;20472;-61
2021/07/12 09:49:40;;;;;;;9.47;9.10;;;24.00;95.60;;;;;;3503059;40;20482;-61
2021/07/12 09:52:10;;;;;;;9.47;8.87;;;24.10;95.60;;;;;;3506296;40;20459;-61
2021/07/12 09:54:40;;;;;;;9.63;9.07;;;24.10;95.60;;;;;;3505789;40;20474;-62
2021/07/12 09:57:11;;;;;;;11.00;10.13;;;24.00;95.60;;;;;;3506955;40;20554;-61
2021/07/12 09:59:58;;;;;;;10.80;10.30;;;24.10;95.70;;;;;;3507238;40;20574;-61
2021/07/12 10:02:30;;;;;;;10.27;9.90;;;24.10;95.80;;;;;;3501743;40;20645;-60
2021/07/12 10:04:59;;;;;;;10.30;9.80;;;24.10;95.80;;;;;;3495385;40;20479;-61
2021/07/12 10:07:27;;;;;;;10.37;9.77;;;24.10;95.80;;;;;;3496084;40;20685;-61
2021/07/12 10:09:55;;;;;;;10.60;10.10;;;24.10;95.90;;;;;;3498216;40;20863;-60
2021/07/12 10:12:22;;;;;;;10.73;10.10;;;24.10;95.90;;;;;;3492645;40;20510;-61
2021/07/12 10:14:55;;;;;;;10.47;9.90;;;24.10;95.90;;;;;;3495646;40;20515;-61
2021/07/12 10:17:24;;;;;;;9.87;9.47;;;24.10;95.90;;;;;;3498237;40;20828;-61
2021/07/12 10:19:52;;;;;;;11.30;10.50;;;24.10;95.80;;;;;;3498487;40;20779;-61
2021/07/12 10:22:24;;;;;;;14.17;12.90;;;24.10;95.80;;;;;;3498676;40;20455;-60
2021/07/12 10:24:52;;;;;;;13.63;12.43;;;24.10;96.00;;;;;;3502904;40;20647;-60
2021/07/12 10:27:23;;;;;;;13.10;12.30;;;24.10;95.80;;;;;;3501686;40;20488;-61
2021/07/12 10:29:52;;;;;;;13.13;12.23;;;24.10;95.90;;;;;;3500639;40;20468;-61
2021/07/12 10:32:20;;;;;;;14.17;13.20;;;24.10;95.90;;;;;;3499348;40;20488;-60
2021/07/12 10:34:48;;;;;;;12.77;12.10;;;24.10;95.90;;;;;;3499191;40;20713;-62
2021/07/12 10:37:22;;;;;;;11.60;10.73;;;24.10;96.20;;;;;;3491631;40;20499;-63
2021/07/12 10:40:11;;;;;;;12.17;11.37;;;24.10;95.80;;;;;;3497876;40;20654;-61
2021/07/12 10:42:51;;;;;;;11.37;10.87;;;24.10;95.80;;;;;;3501303;40;20728;-62
2021/07/12 10:45:20;;;;;;;11.50;11.00;;;24.10;95.70;;;;;;3499161;40;20522;-62
2021/07/12 10:47:49;;;;;;;10.10;9.60;;;24.10;95.60;;;;;;3500072;40;20575;-61
2021/07/12 10:50:42;;;;;;;9.70;9.30;;;24.10;95.60;;;;;;3509335;40;21291;-61
2021/07/12 10:53:35;;;;;;;10.73;10.33;;;24.10;95.50;;;;;;3510692;40;20526;-62
2021/07/12 10:56:07;;;;;;;10.77;10.17;;;24.10;95.40;;;;;;3506705;40;20482;-62
2021/07/12 10:58:52;;;;;;;10.50;10.00;;;24.10;95.40;;;;;;3508216;40;20494;-62
2021/07/12 11:01:41;;;;;;;10.00;9.60;;;24.10;95.30;;;;;;3511943;40;20493;-62
2021/07/12 11:04:37;;;;;;;10.70;10.20;;;24.10;95.20;;;;;;3508253;40;20494;-62
2021/07/12 11:07:09;;;;;;;10.90;10.50;;;24.10;95.20;;;;;;3504150;40;20468;-61
2021/07/12 11:09:52;;;;;;;10.83;10.33;;;24.10;95.10;;;;;;3496146;40;20498;-62
2021/07/12 11:12:50;;;;;;;11.30;10.90;;;24.10;95.10;;;;;;3509924;40;20464;-62
2021/07/12 11:15:33;;;;;;;10.43;9.93;;;24.10;95.10;;;;;;3510278;40;20506;-61
2021/07/12 11:18:03;;;;;;;11.93;11.40;;;24.10;95.10;;;;;;3509968;40;20545;-62
2021/07/12 11:20:47;;;;;;;10.10;9.70;;;24.10;95.10;;;;;;3509328;40;20737;-61
2021/07/12 11:23:43;;;;;;;11.50;11.00;;;24.10;95.20;;;;;;3504037;40;20502;-62
2021/07/12 11:26:59;;;;;;;11.37;10.83;;;24.00;95.00;;;;;;3509781;40;20487;-62
2021/07/12 11:29:30;;;;;;;11.43;11.00;;;24.10;95.10;;;;;;3470930;41;20499;-62
2021/07/12 11:31:59;;;;;;;11.70;11.20;;;24.10;94.90;;;;;;3501568;40;20502;-62
2021/07/12 11:34:28;;;;;;;11.30;10.80;;;24.10;94.90;;;;;;3508261;40;21150;-62
2021/07/12 11:36:59;;;;;;;10.60;10.20;;;24.10;94.90;;;;;;3509095;40;20470;-61
2021/07/12 11:39:28;;;;;;;10.47;9.97;;;24.00;94.80;;;;;;3508909;40;20950;-62
2021/07/12 11:41:56;;;;;;;10.90;10.50;;;24.10;94.80;;;;;;3496667;40;20464;-62
2021/07/12 11:44:24;;;;;;;10.60;10.20;;;24.10;94.70;;;;;;3508257;40;20929;-62
2021/07/12 11:46:54;;;;;;;10.87;10.47;;;24.10;94.60;;;;;;3510329;40;20502;-61
2021/07/12 11:49:25;;;;;;;11.30;10.60;;;24.10;94.50;;;;;;3507668;40;20566;-62
2021/07/12 11:51:54;;;;;;;10.50;10.00;;;24.10;94.50;;;;;;3506530;40;20878;-61
2021/07/12 11:54:24;;;;;;;10.80;10.40;;;24.10;94.40;;;;;;3497805;40;20777;-60
2021/07/12 11:56:59;;;;;;;10.43;10.03;;;24.10;94.40;;;;;;3504824;40;20707;-62
2021/07/12 11:59:32;;;;;;;11.87;11.37;;;24.10;94.40;;;;;;3501210;40;20732;-62
2021/07/12 12:02:07;;;;;;;10.80;10.30;;;24.10;94.40;;;;;;3510806;40;20472;-62
2021/07/12 12:04:56;;;;;;;10.80;10.30;;;24.10;94.40;;;;;;3500803;40;21100;-61
2021/07/12 12:07:37;;;;;;;10.87;10.47;;;24.10;94.40;;;;;;3500645;40;20464;-61
2021/07/12 12:10:08;;;;;;;10.60;10.20;;;24.10;94.40;;;;;;3497771;40;20784;-62
2021/07/12 12:12:39;;;;;;;11.10;10.60;;;24.10;94.40;;;;;;3497234;40;20705;-62
2021/07/12 12:15:13;;;;;;;10.27;9.70;;;24.10;94.40;;;;;;3500600;40;20477;-61
2021/07/12 12:17:47;;;;;;;10.03;9.63;;;24.10;94.40;;;;;;3500313;40;20591;-62
2021/07/12 12:20:18;;;;;;;10.13;9.73;;;24.10;94.30;;;;;;3500551;40;20833;-62
2021/07/12 12:23:08;;;;;;;10.27;9.77;;;24.10;94.40;;;;;;3488323;40;20527;-62
2021/07/12 12:25:41;;;;;;;10.03;9.60;;;24.10;94.40;;;;;;3498868;40;20551;-61
2021/07/12 12:28:09;;;;;;;10.47;9.93;;;24.10;94.30;;;;;;3496251;40;20896;-62
2021/07/12 12:30:36;;;;;;;10.10;9.70;;;24.10;94.30;;;;;;3495982;40;20497;-62
2021/07/12 12:33:05;;;;;;;10.97;10.57;;;24.10;94.30;;;;;;3495750;40;20492;-61
2021/07/12 12:35:33;;;;;;;10.47;10.07;;;24.10;94.30;;;;;;3498889;40;20895;-61
2021/07/12 12:38:12;;;;;;;10.00;9.60;;;24.10;94.20;;;;;;3500808;40;20456;-62
2021/07/12 12:40:40;;;;;;;10.60;10.20;;;24.10;94.20;;;;;;3500451;40;20551;-63
2021/07/12 12:43:13;;;;;;;10.90;10.50;;;24.10;94.20;;;;;;3499677;40;20820;-61
2021/07/12 12:45:54;;;;;;;10.77;10.37;;;24.10;94.20;;;;;;3499476;40;20456;-59
2021/07/12 12:48:43;;;;;;;10.20;9.80;;;24.10;94.20;;;;;;3498305;40;20579;-60
2021/07/12 12:51:28;;;;;;;10.07;9.57;;;24.10;94.20;;;;;;3499842;40;20484;-61
2021/07/12 12:54:10;;;;;;;10.30;9.90;;;24.10;94.30;;;;;;3500916;40;20464;-62
2021/07/12 12:56:48;;;;;;;10.07;9.67;;;24.10;94.30;;;;;;3499208;40;20559;-62
2021/07/12 12:59:16;;;;;;;9.70;9.30;;;24.10;94.30;;;;;;3501280;40;20482;-61